sensor_id;sensor_type;location;lat;lon;timestamp;temperature;humidity
44513;DHT22;30219;50.588;9.504;2023-04-06T00:00:50;-1.30;99.90
44513;DHT22;30219;50.588;9.504;2023-04-06T00:03:16;-1.30;99.90
44513;DHT22;30219;50.588;9.504;2023-04-06T00:05:42;-1.30;99.90
44513;DHT22;30219;50.588;9.504;2023-04-06T00:08:07;-1.30;99.90
44513;DHT22;30219;50.588;9.504;2023-04-06T00:10:33;-1.30;99.90
44513;DHT22;30219;50.588;9.504;2023-04-06T00:12:59;-1.30;99.90
44513;DHT22;30219;50.588;9.504;2023-04-06T00:15:24;-1.40;99.90
44513;DHT22;30219;50.588;9.504;2023-04-06T00:17:50;-1.40;99.90
44513;DHT22;30219;50.588;9.504;2023-04-06T00:20:16;-1.40;99.90
44513;DHT22;30219;50.588;9.504;2023-04-06T00:22:41;-1.40;99.90
44513;DHT22;30219;50.588;9.504;2023-04-06T00:25:07;-1.40;99.90
44513;DHT22;30219;50.588;9.504;2023-04-06T00:27:32;-1.50;99.90
44513;DHT22;30219;50.588;9.504;2023-04-06T00:29:58;-1.50;99.90
44513;DHT22;30219;50.588;9.504;2023-04-06T00:32:23;-1.50;99.90
44513;DHT22;30219;50.588;9.504;2023-04-06T00:34:49;-1.50;99.90
44513;DHT22;30219;50.588;9.504;2023-04-06T00:37:14;-1.50;99.90
44513;DHT22;30219;50.588;9.504;2023-04-06T00:39:40;-1.50;99.90
44513;DHT22;30219;50.588;9.504;2023-04-06T00:42:12;-1.50;99.90
44513;DHT22;30219;50.588;9.504;2023-04-06T00:44:39;-1.50;99.90
44513;DHT22;30219;50.588;9.504;2023-04-06T00:47:05;-1.60;99.90
44513;DHT22;30219;50.588;9.504;2023-04-06T00:49:31;-1.70;99.90
44513;DHT22;30219;50.588;9.504;2023-04-06T00:51:57;-1.70;99.90
44513;DHT22;30219;50.588;9.504;2023-04-06T00:54:22;-1.70;99.90
44513;DHT22;30219;50.588;9.504;2023-04-06T00:56:48;-1.80;99.90
44513;DHT22;30219;50.588;9.504;2023-04-06T00:59:13;-1.80;99.90
44513;DHT22;30219;50.588;9.504;2023-04-06T01:01:39;-1.80;99.90
44513;DHT22;30219;50.588;9.504;2023-04-06T01:04:04;-1.80;99.90
44513;DHT22;30219;50.588;9.504;2023-04-06T01:06:30;-1.80;99.90
44513;DHT22;30219;50.588;9.504;2023-04-06T01:08:55;-1.90;99.90
44513;DHT22;30219;50.588;9.504;2023-04-06T01:11:21;-2.00;99.90
44513;DHT22;30219;50.588;9.504;2023-04-06T01:13:46;-2.10;99.90
44513;DHT22;30219;50.588;9.504;2023-04-06T01:16:12;-2.20;99.90
44513;DHT22;30219;50.588;9.504;2023-04-06T01:18:37;-2.20;99.90
44513;DHT22;30219;50.588;9.504;2023-04-06T01:21:03;-2.20;99.90
44513;DHT22;30219;50.588;9.504;2023-04-06T01:23:29;-2.20;99.90
44513;DHT22;30219;50.588;9.504;2023-04-06T01:25:54;-2.20;99.90
44513;DHT22;30219;50.588;9.504;2023-04-06T01:28:20;-2.20;99.90
44513;DHT22;30219;50.588;9.504;2023-04-06T01:30:45;-2.20;99.90
44513;DHT22;30219;50.588;9.504;2023-04-06T01:33:11;-2.20;99.90
44513;DHT22;30219;50.588;9.504;2023-04-06T01:35:37;-2.20;99.90
44513;DHT22;30219;50.588;9.504;2023-04-06T01:38:02;-2.20;99.90
44513;DHT22;30219;50.588;9.504;2023-04-06T01:40:27;-2.30;99.90
44513;DHT22;30219;50.588;9.504;2023-04-06T01:42:53;-2.40;99.90
44513;DHT22;30219;50.588;9.504;2023-04-06T01:45:18;-2.40;99.90
44513;DHT22;30219;50.588;9.504;2023-04-06T01:47:44;-2.40;99.90
44513;DHT22;30219;50.588;9.504;2023-04-06T01:50:09;-2.40;99.90
44513;DHT22;30219;50.588;9.504;2023-04-06T01:52:35;-2.40;99.90
44513;DHT22;30219;50.588;9.504;2023-04-06T01:55:00;-2.40;99.90
44513;DHT22;30219;50.588;9.504;2023-04-06T01:57:26;-2.40;99.90
44513;DHT22;30219;50.588;9.504;2023-04-06T01:59:51;-2.40;99.90
44513;DHT22;30219;50.588;9.504;2023-04-06T02:02:17;-2.30;99.90
44513;DHT22;30219;50.588;9.504;2023-04-06T02:04:42;-2.30;99.90
44513;DHT22;30219;50.588;9.504;2023-04-06T02:07:08;-2.30;99.90
44513;DHT22;30219;50.588;9.504;2023-04-06T02:09:33;-2.30;99.90
44513;DHT22;30219;50.588;9.504;2023-04-06T02:11:59;-2.20;99.90
44513;DHT22;30219;50.588;9.504;2023-04-06T02:14:26;-2.40;99.90
44513;DHT22;30219;50.588;9.504;2023-04-06T02:16:52;-2.50;99.90
44513;DHT22;30219;50.588;9.504;2023-04-06T02:19:17;-2.60;99.90
44513;DHT22;30219;50.588;9.504;2023-04-06T02:21:42;-2.70;99.90
44513;DHT22;30219;50.588;9.504;2023-04-06T02:24:08;-2.70;99.90
44513;DHT22;30219;50.588;9.504;2023-04-06T02:26:33;-2.70;99.90
44513;DHT22;30219;50.588;9.504;2023-04-06T02:28:59;-2.70;99.90
44513;DHT22;30219;50.588;9.504;2023-04-06T02:31:25;-2.70;99.90
44513;DHT22;30219;50.588;9.504;2023-04-06T02:33:51;-2.70;99.90
44513;DHT22;30219;50.588;9.504;2023-04-06T02:36:16;-2.60;99.90
44513;DHT22;30219;50.588;9.504;2023-04-06T02:38:42;-2.70;99.90
44513;DHT22;30219;50.588;9.504;2023-04-06T02:41:07;-2.70;99.90
44513;DHT22;30219;50.588;9.504;2023-04-06T02:43:33;-2.70;99.90
44513;DHT22;30219;50.588;9.504;2023-04-06T02:45:58;-2.70;99.90
44513;DHT22;30219;50.588;9.504;2023-04-06T02:48:24;-2.70;99.90
44513;DHT22;30219;50.588;9.504;2023-04-06T02:50:50;-2.60;99.90
44513;DHT22;30219;50.588;9.504;2023-04-06T02:53:15;-2.60;99.90
44513;DHT22;30219;50.588;9.504;2023-04-06T02:55:40;-2.50;99.90
44513;DHT22;30219;50.588;9.504;2023-04-06T02:58:06;-2.60;99.90
44513;DHT22;30219;50.588;9.504;2023-04-06T03:00:31;-2.60;99.90
44513;DHT22;30219;50.588;9.504;2023-04-06T03:02:57;-2.80;99.90
44513;DHT22;30219;50.588;9.504;2023-04-06T03:05:22;-2.80;99.90
44513;DHT22;30219;50.588;9.504;2023-04-06T03:07:48;-2.90;99.90
44513;DHT22;30219;50.588;9.504;2023-04-06T03:10:13;-2.80;99.90
44513;DHT22;30219;50.588;9.504;2023-04-06T03:12:39;-2.80;99.90
44513;DHT22;30219;50.588;9.504;2023-04-06T03:15:07;-2.80;99.90
44513;DHT22;30219;50.588;9.504;2023-04-06T03:17:32;-2.80;99.90
44513;DHT22;30219;50.588;9.504;2023-04-06T03:19:58;-2.70;99.90
44513;DHT22;30219;50.588;9.504;2023-04-06T03:22:23;-2.80;99.90
44513;DHT22;30219;50.588;9.504;2023-04-06T03:24:49;-2.80;99.90
44513;DHT22;30219;50.588;9.504;2023-04-06T03:27:14;-2.80;99.90
44513;DHT22;30219;50.588;9.504;2023-04-06T03:29:40;-2.90;99.90
44513;DHT22;30219;50.588;9.504;2023-04-06T03:32:05;-2.90;99.90
44513;DHT22;30219;50.588;9.504;2023-04-06T03:34:31;-2.90;99.90
44513;DHT22;30219;50.588;9.504;2023-04-06T03:36:56;-2.90;99.90
44513;DHT22;30219;50.588;9.504;2023-04-06T03:39:22;-2.90;99.90
44513;DHT22;30219;50.588;9.504;2023-04-06T03:41:47;-2.90;99.90
44513;DHT22;30219;50.588;9.504;2023-04-06T03:44:13;-3.00;99.90
44513;DHT22;30219;50.588;9.504;2023-04-06T03:46:38;-3.00;99.90
44513;DHT22;30219;50.588;9.504;2023-04-06T03:49:04;-3.10;99.90
44513;DHT22;30219;50.588;9.504;2023-04-06T03:51:29;-3.00;99.90
44513;DHT22;30219;50.588;9.504;2023-04-06T03:53:56;-3.00;99.90
44513;DHT22;30219;50.588;9.504;2023-04-06T03:56:21;-3.00;99.90
44513;DHT22;30219;50.588;9.504;2023-04-06T03:58:46;-3.10;99.90
44513;DHT22;30219;50.588;9.504;2023-04-06T04:01:16;-3.20;99.90
44513;DHT22;30219;50.588;9.504;2023-04-06T04:03:42;-3.20;99.90
44513;DHT22;30219;50.588;9.504;2023-04-06T04:06:07;-3.20;99.90
44513;DHT22;30219;50.588;9.504;2023-04-06T04:08:33;-3.30;99.90
44513;DHT22;30219;50.588;9.504;2023-04-06T04:10:58;-3.30;99.90
44513;DHT22;30219;50.588;9.504;2023-04-06T04:13:24;-3.30;99.90
44513;DHT22;30219;50.588;9.504;2023-04-06T04:15:50;-3.30;99.90
44513;DHT22;30219;50.588;9.504;2023-04-06T04:18:15;-3.30;99.90
44513;DHT22;30219;50.588;9.504;2023-04-06T04:20:41;-3.20;99.90
44513;DHT22;30219;50.588;9.504;2023-04-06T04:23:06;-3.30;99.90
44513;DHT22;30219;50.588;9.504;2023-04-06T04:25:32;-3.30;99.90
44513;DHT22;30219;50.588;9.504;2023-04-06T04:27:57;-3.40;99.90
44513;DHT22;30219;50.588;9.504;2023-04-06T04:30:23;-3.50;99.90
44513;DHT22;30219;50.588;9.504;2023-04-06T04:32:48;-3.50;99.90
44513;DHT22;30219;50.588;9.504;2023-04-06T04:35:14;-3.50;99.90
44513;DHT22;30219;50.588;9.504;2023-04-06T04:37:40;-3.50;99.90
44513;DHT22;30219;50.588;9.504;2023-04-06T04:40:06;-3.50;99.90
44513;DHT22;30219;50.588;9.504;2023-04-06T04:42:32;-3.60;99.90
44513;DHT22;30219;50.588;9.504;2023-04-06T04:44:57;-3.60;99.90
44513;DHT22;30219;50.588;9.504;2023-04-06T04:47:23;-3.60;99.90
44513;DHT22;30219;50.588;9.504;2023-04-06T04:49:48;-3.50;99.90
44513;DHT22;30219;50.588;9.504;2023-04-06T04:52:14;-3.50;99.90
44513;DHT22;30219;50.588;9.504;2023-04-06T04:54:39;-3.50;99.90
44513;DHT22;30219;50.588;9.504;2023-04-06T04:57:06;-3.50;99.90
44513;DHT22;30219;50.588;9.504;2023-04-06T04:59:31;-3.50;99.90
44513;DHT22;30219;50.588;9.504;2023-04-06T05:01:57;-3.40;99.90
44513;DHT22;30219;50.588;9.504;2023-04-06T05:04:22;-3.40;99.90
44513;DHT22;30219;50.588;9.504;2023-04-06T05:06:49;-3.40;99.90
44513;DHT22;30219;50.588;9.504;2023-04-06T05:09:14;-3.30;99.90
44513;DHT22;30219;50.588;9.504;2023-04-06T05:11:40;-3.40;99.90
44513;DHT22;30219;50.588;9.504;2023-04-06T05:14:05;-3.40;99.90
44513;DHT22;30219;50.588;9.504;2023-04-06T05:16:32;-3.40;99.90
44513;DHT22;30219;50.588;9.504;2023-04-06T05:18:57;-3.50;99.90
44513;DHT22;30219;50.588;9.504;2023-04-06T05:21:23;-3.40;99.90
44513;DHT22;30219;50.588;9.504;2023-04-06T05:23:48;-3.40;99.90
44513;DHT22;30219;50.588;9.504;2023-04-06T05:26:14;-3.40;99.90
44513;DHT22;30219;50.588;9.504;2023-04-06T05:28:39;-3.30;99.90
44513;DHT22;30219;50.588;9.504;2023-04-06T05:31:07;-3.30;99.90
44513;DHT22;30219;50.588;9.504;2023-04-06T05:33:33;-3.20;99.90
44513;DHT22;30219;50.588;9.504;2023-04-06T05:35:58;-3.00;99.90
44513;DHT22;30219;50.588;9.504;2023-04-06T05:38:26;-2.80;99.90
44513;DHT22;30219;50.588;9.504;2023-04-06T05:40:51;-2.50;99.90
44513;DHT22;30219;50.588;9.504;2023-04-06T05:43:17;-2.10;99.90
44513;DHT22;30219;50.588;9.504;2023-04-06T05:45:44;-1.70;99.90
44513;DHT22;30219;50.588;9.504;2023-04-06T05:48:10;-1.20;99.90
44513;DHT22;30219;50.588;9.504;2023-04-06T05:50:35;-0.70;99.90
44513;DHT22;30219;50.588;9.504;2023-04-06T05:53:01;-0.30;99.90
44513;DHT22;30219;50.588;9.504;2023-04-06T05:55:26;0.20;99.90
44513;DHT22;30219;50.588;9.504;2023-04-06T05:57:53;0.60;99.90
44513;DHT22;30219;50.588;9.504;2023-04-06T06:00:18;0.90;99.90
44513;DHT22;30219;50.588;9.504;2023-04-06T06:02:44;1.20;99.90
44513;DHT22;30219;50.588;9.504;2023-04-06T06:05:10;1.40;99.90
44513;DHT22;30219;50.588;9.504;2023-04-06T06:07:36;1.70;99.90
44513;DHT22;30219;50.588;9.504;2023-04-06T06:10:01;2.10;99.90
44513;DHT22;30219;50.588;9.504;2023-04-06T06:12:27;2.10;99.90
44513;DHT22;30219;50.588;9.504;2023-04-06T06:14:52;2.30;99.90
44513;DHT22;30219;50.588;9.504;2023-04-06T06:17:18;2.70;99.90
44513;DHT22;30219;50.588;9.504;2023-04-06T06:19:43;3.00;99.90
44513;DHT22;30219;50.588;9.504;2023-04-06T06:22:09;3.30;99.90
44513;DHT22;30219;50.588;9.504;2023-04-06T06:24:35;3.50;99.90
44513;DHT22;30219;50.588;9.504;2023-04-06T06:27:00;3.70;99.90
44513;DHT22;30219;50.588;9.504;2023-04-06T06:29:26;3.80;99.90
44513;DHT22;30219;50.588;9.504;2023-04-06T06:31:51;3.90;99.90
44513;DHT22;30219;50.588;9.504;2023-04-06T06:34:17;3.90;99.90
44513;DHT22;30219;50.588;9.504;2023-04-06T06:36:42;3.90;99.90
44513;DHT22;30219;50.588;9.504;2023-04-06T06:39:07;4.00;99.90
44513;DHT22;30219;50.588;9.504;2023-04-06T06:41:33;4.20;99.90
44513;DHT22;30219;50.588;9.504;2023-04-06T06:43:59;4.30;99.90
44513;DHT22;30219;50.588;9.504;2023-04-06T06:46:25;4.50;99.90
44513;DHT22;30219;50.588;9.504;2023-04-06T06:48:50;4.80;99.90
44513;DHT22;30219;50.588;9.504;2023-04-06T06:51:16;4.90;99.90
44513;DHT22;30219;50.588;9.504;2023-04-06T06:53:41;5.10;99.90
44513;DHT22;30219;50.588;9.504;2023-04-06T06:56:07;5.30;99.90
44513;DHT22;30219;50.588;9.504;2023-04-06T06:58:32;5.00;99.90
44513;DHT22;30219;50.588;9.504;2023-04-06T07:00:58;5.10;99.90
44513;DHT22;30219;50.588;9.504;2023-04-06T07:03:24;5.20;99.90
44513;DHT22;30219;50.588;9.504;2023-04-06T07:05:49;5.00;99.90
44513;DHT22;30219;50.588;9.504;2023-04-06T07:08:22;5.00;99.90
44513;DHT22;30219;50.588;9.504;2023-04-06T07:10:47;5.00;99.90
44513;DHT22;30219;50.588;9.504;2023-04-06T07:13:13;4.80;99.90
44513;DHT22;30219;50.588;9.504;2023-04-06T07:15:44;5.00;99.90
44513;DHT22;30219;50.588;9.504;2023-04-06T07:18:09;5.20;99.90
44513;DHT22;30219;50.588;9.504;2023-04-06T07:20:35;5.20;99.90
44513;DHT22;30219;50.588;9.504;2023-04-06T07:23:00;5.40;99.90
44513;DHT22;30219;50.588;9.504;2023-04-06T07:25:27;5.40;99.90
44513;DHT22;30219;50.588;9.504;2023-04-06T07:27:53;5.40;99.90
44513;DHT22;30219;50.588;9.504;2023-04-06T07:30:18;5.80;99.90
44513;DHT22;30219;50.588;9.504;2023-04-06T07:32:44;5.80;99.90
44513;DHT22;30219;50.588;9.504;2023-04-06T07:35:10;6.10;99.90
44513;DHT22;30219;50.588;9.504;2023-04-06T07:37:35;6.40;99.90
44513;DHT22;30219;50.588;9.504;2023-04-06T07:40:01;6.90;99.00
44513;DHT22;30219;50.588;9.504;2023-04-06T07:42:26;7.10;99.00
44513;DHT22;30219;50.588;9.504;2023-04-06T07:44:52;7.50;98.80
44513;DHT22;30219;50.588;9.504;2023-04-06T07:47:17;8.00;97.50
44513;DHT22;30219;50.588;9.504;2023-04-06T07:49:43;8.10;97.70
44513;DHT22;30219;50.588;9.504;2023-04-06T07:52:08;8.40;97.10
44513;DHT22;30219;50.588;9.504;2023-04-06T07:54:34;8.70;97.00
44513;DHT22;30219;50.588;9.504;2023-04-06T07:56:59;9.10;96.50
44513;DHT22;30219;50.588;9.504;2023-04-06T07:59:25;9.40;95.70
44513;DHT22;30219;50.588;9.504;2023-04-06T08:01:50;9.60;95.40
44513;DHT22;30219;50.588;9.504;2023-04-06T08:04:16;9.60;95.40
44513;DHT22;30219;50.588;9.504;2023-04-06T08:06:41;9.40;95.10
44513;DHT22;30219;50.588;9.504;2023-04-06T08:09:07;9.60;94.90
44513;DHT22;30219;50.588;9.504;2023-04-06T08:11:33;9.60;94.40
44513;DHT22;30219;50.588;9.504;2023-04-06T08:13:58;9.50;95.90
44513;DHT22;30219;50.588;9.504;2023-04-06T08:16:24;9.60;95.80
44513;DHT22;30219;50.588;9.504;2023-04-06T08:18:49;9.80;94.70
44513;DHT22;30219;50.588;9.504;2023-04-06T08:21:15;9.70;95.50
44513;DHT22;30219;50.588;9.504;2023-04-06T08:23:40;10.10;95.30
44513;DHT22;30219;50.588;9.504;2023-04-06T08:26:06;10.20;93.60
44513;DHT22;30219;50.588;9.504;2023-04-06T08:28:31;10.00;94.20
44513;DHT22;30219;50.588;9.504;2023-04-06T08:30:57;10.00;93.90
44513;DHT22;30219;50.588;9.504;2023-04-06T08:33:23;10.30;93.00
44513;DHT22;30219;50.588;9.504;2023-04-06T08:35:48;10.40;93.20
44513;DHT22;30219;50.588;9.504;2023-04-06T08:38:14;10.80;92.70
44513;DHT22;30219;50.588;9.504;2023-04-06T08:40:39;10.30;91.20
44513;DHT22;30219;50.588;9.504;2023-04-06T08:43:09;10.70;91.70
44513;DHT22;30219;50.588;9.504;2023-04-06T08:45:36;11.30;91.30
44513;DHT22;30219;50.588;9.504;2023-04-06T08:48:02;11.50;89.40
44513;DHT22;30219;50.588;9.504;2023-04-06T08:50:32;11.90;90.30
44513;DHT22;30219;50.588;9.504;2023-04-06T08:52:57;12.20;88.00
44513;DHT22;30219;50.588;9.504;2023-04-06T08:55:24;12.50;84.70
44513;DHT22;30219;50.588;9.504;2023-04-06T08:57:50;12.70;81.20
44513;DHT22;30219;50.588;9.504;2023-04-06T09:00:18;12.70;83.10
44513;DHT22;30219;50.588;9.504;2023-04-06T09:02:45;11.90;77.90
44513;DHT22;30219;50.588;9.504;2023-04-06T09:05:10;11.80;82.10
44513;DHT22;30219;50.588;9.504;2023-04-06T09:07:36;11.90;78.60
44513;DHT22;30219;50.588;9.504;2023-04-06T09:10:03;12.40;78.50
44513;DHT22;30219;50.588;9.504;2023-04-06T09:12:29;12.50;76.60
44513;DHT22;30219;50.588;9.504;2023-04-06T09:14:55;13.10;75.80
44513;DHT22;30219;50.588;9.504;2023-04-06T09:17:28;14.00;74.00
44513;DHT22;30219;50.588;9.504;2023-04-06T09:19:54;13.50;76.30
44513;DHT22;30219;50.588;9.504;2023-04-06T09:22:20;13.20;73.50
44513;DHT22;30219;50.588;9.504;2023-04-06T09:24:49;12.60;73.60
44513;DHT22;30219;50.588;9.504;2023-04-06T09:27:15;12.90;72.30
44513;DHT22;30219;50.588;9.504;2023-04-06T09:29:42;12.90;73.30
44513;DHT22;30219;50.588;9.504;2023-04-06T09:32:08;12.40;71.50
44513;DHT22;30219;50.588;9.504;2023-04-06T09:34:40;12.00;74.00
44513;DHT22;30219;50.588;9.504;2023-04-06T09:37:15;11.90;76.20
44513;DHT22;30219;50.588;9.504;2023-04-06T09:39:41;11.80;71.60
44513;DHT22;30219;50.588;9.504;2023-04-06T09:42:06;12.20;74.90
44513;DHT22;30219;50.588;9.504;2023-04-06T09:44:32;12.00;74.90
44513;DHT22;30219;50.588;9.504;2023-04-06T09:46:57;12.20;72.70
44513;DHT22;30219;50.588;9.504;2023-04-06T09:49:23;12.30;74.60
44513;DHT22;30219;50.588;9.504;2023-04-06T09:51:53;12.50;75.50
44513;DHT22;30219;50.588;9.504;2023-04-06T09:54:20;12.60;73.40
44513;DHT22;30219;50.588;9.504;2023-04-06T09:56:46;12.60;73.80
44513;DHT22;30219;50.588;9.504;2023-04-06T10:01:58;12.00;75.10
44513;DHT22;30219;50.588;9.504;2023-04-06T10:04:37;11.30;75.40
44513;DHT22;30219;50.588;9.504;2023-04-06T10:07:06;11.30;74.50
44513;DHT22;30219;50.588;9.504;2023-04-06T10:09:32;11.60;75.60
44513;DHT22;30219;50.588;9.504;2023-04-06T10:12:02;11.70;78.40
44513;DHT22;30219;50.588;9.504;2023-04-06T10:14:28;11.60;77.10
44513;DHT22;30219;50.588;9.504;2023-04-06T10:16:54;11.80;75.30
44513;DHT22;30219;50.588;9.504;2023-04-06T10:19:24;12.00;79.10
44513;DHT22;30219;50.588;9.504;2023-04-06T10:21:52;11.70;75.10
44513;DHT22;30219;50.588;9.504;2023-04-06T10:24:19;12.10;77.40
44513;DHT22;30219;50.588;9.504;2023-04-06T10:26:58;12.40;77.00
44513;DHT22;30219;50.588;9.504;2023-04-06T10:29:25;12.40;74.60
44513;DHT22;30219;50.588;9.504;2023-04-06T10:31:51;12.70;75.00
44513;DHT22;30219;50.588;9.504;2023-04-06T10:34:16;13.20;76.90
44513;DHT22;30219;50.588;9.504;2023-04-06T10:36:42;13.50;75.40
44513;DHT22;30219;50.588;9.504;2023-04-06T10:39:07;13.80;72.40
44513;DHT22;30219;50.588;9.504;2023-04-06T10:41:43;14.10;74.60
44513;DHT22;30219;50.588;9.504;2023-04-06T10:44:16;13.30;72.50
44513;DHT22;30219;50.588;9.504;2023-04-06T10:46:42;13.00;75.30
44513;DHT22;30219;50.588;9.504;2023-04-06T10:49:17;12.70;76.30
44513;DHT22;30219;50.588;9.504;2023-04-06T10:51:42;13.80;75.70
44513;DHT22;30219;50.588;9.504;2023-04-06T10:54:08;14.20;73.50
44513;DHT22;30219;50.588;9.504;2023-04-06T10:56:36;13.80;74.20
44513;DHT22;30219;50.588;9.504;2023-04-06T10:59:02;14.50;75.80
44513;DHT22;30219;50.588;9.504;2023-04-06T11:01:27;13.80;74.70
44513;DHT22;30219;50.588;9.504;2023-04-06T11:03:55;12.80;72.20
44513;DHT22;30219;50.588;9.504;2023-04-06T11:06:26;12.40;74.10
44513;DHT22;30219;50.588;9.504;2023-04-06T11:08:52;12.50;74.30
44513;DHT22;30219;50.588;9.504;2023-04-06T11:11:18;12.50;73.50
44513;DHT22;30219;50.588;9.504;2023-04-06T11:16:14;13.50;75.40
44513;DHT22;30219;50.588;9.504;2023-04-06T11:18:47;13.30;76.20
44513;DHT22;30219;50.588;9.504;2023-04-06T11:21:13;13.90;76.10
44513;DHT22;30219;50.588;9.504;2023-04-06T11:23:38;14.80;73.60
44513;DHT22;30219;50.588;9.504;2023-04-06T11:26:04;15.40;73.00
44513;DHT22;30219;50.588;9.504;2023-04-06T11:28:29;15.50;71.90
44513;DHT22;30219;50.588;9.504;2023-04-06T11:30:55;15.00;70.90
44513;DHT22;30219;50.588;9.504;2023-04-06T11:33:21;14.50;70.80
44513;DHT22;30219;50.588;9.504;2023-04-06T11:35:49;13.60;74.10
44513;DHT22;30219;50.588;9.504;2023-04-06T11:38:17;14.30;75.20
44513;DHT22;30219;50.588;9.504;2023-04-06T11:40:43;13.90;72.60
44513;DHT22;30219;50.588;9.504;2023-04-06T11:43:10;13.30;73.10
44513;DHT22;30219;50.588;9.504;2023-04-06T11:45:41;13.80;76.60
44513;DHT22;30219;50.588;9.504;2023-04-06T11:48:16;13.90;74.10
44513;DHT22;30219;50.588;9.504;2023-04-06T11:50:42;13.10;75.10
44513;DHT22;30219;50.588;9.504;2023-04-06T11:53:08;13.40;75.10
44513;DHT22;30219;50.588;9.504;2023-04-06T11:55:39;13.90;72.80
44513;DHT22;30219;50.588;9.504;2023-04-06T11:58:05;13.70;73.10
44513;DHT22;30219;50.588;9.504;2023-04-06T12:00:32;13.50;72.40
44513;DHT22;30219;50.588;9.504;2023-04-06T12:03:00;13.10;74.00
44513;DHT22;30219;50.588;9.504;2023-04-06T12:05:25;12.30;74.60
44513;DHT22;30219;50.588;9.504;2023-04-06T12:07:51;12.60;75.40
44513;DHT22;30219;50.588;9.504;2023-04-06T12:10:16;12.20;75.20
44513;DHT22;30219;50.588;9.504;2023-04-06T12:12:42;12.40;74.70
44513;DHT22;30219;50.588;9.504;2023-04-06T12:15:08;13.10;75.50
44513;DHT22;30219;50.588;9.504;2023-04-06T12:17:34;13.50;73.00
44513;DHT22;30219;50.588;9.504;2023-04-06T12:19:59;13.80;74.00
44513;DHT22;30219;50.588;9.504;2023-04-06T12:22:25;14.40;74.80
44513;DHT22;30219;50.588;9.504;2023-04-06T12:24:50;14.80;73.30
44513;DHT22;30219;50.588;9.504;2023-04-06T12:27:16;14.30;72.70
44513;DHT22;30219;50.588;9.504;2023-04-06T12:29:41;13.80;73.30
44513;DHT22;30219;50.588;9.504;2023-04-06T12:32:07;13.10;71.50
44513;DHT22;30219;50.588;9.504;2023-04-06T12:34:33;12.90;72.80
44513;DHT22;30219;50.588;9.504;2023-04-06T12:36:59;12.70;75.50
44513;DHT22;30219;50.588;9.504;2023-04-06T12:39:25;13.10;72.40
44513;DHT22;30219;50.588;9.504;2023-04-06T12:41:50;13.20;71.90
44513;DHT22;30219;50.588;9.504;2023-04-06T12:44:16;13.10;78.00
44513;DHT22;30219;50.588;9.504;2023-04-06T12:46:41;13.20;72.40
44513;DHT22;30219;50.588;9.504;2023-04-06T12:49:08;12.90;73.30
44513;DHT22;30219;50.588;9.504;2023-04-06T12:51:33;13.30;72.80
44513;DHT22;30219;50.588;9.504;2023-04-06T12:53:59;13.60;72.60
44513;DHT22;30219;50.588;9.504;2023-04-06T12:56:25;13.70;70.70
44513;DHT22;30219;50.588;9.504;2023-04-06T12:58:50;13.90;72.10
44513;DHT22;30219;50.588;9.504;2023-04-06T13:01:16;13.80;71.20
44513;DHT22;30219;50.588;9.504;2023-04-06T13:03:41;13.50;69.40
44513;DHT22;30219;50.588;9.504;2023-04-06T13:06:07;13.50;70.10
44513;DHT22;30219;50.588;9.504;2023-04-06T13:08:36;13.50;69.80
44513;DHT22;30219;50.588;9.504;2023-04-06T13:11:03;13.50;72.20
44513;DHT22;30219;50.588;9.504;2023-04-06T13:13:29;13.40;71.40
44513;DHT22;30219;50.588;9.504;2023-04-06T13:15:58;13.30;71.80
44513;DHT22;30219;50.588;9.504;2023-04-06T13:18:24;12.90;70.10
44513;DHT22;30219;50.588;9.504;2023-04-06T13:20:49;12.80;69.70
44513;DHT22;30219;50.588;9.504;2023-04-06T13:23:15;13.20;72.30
44513;DHT22;30219;50.588;9.504;2023-04-06T13:25:41;13.20;72.50
44513;DHT22;30219;50.588;9.504;2023-04-06T13:28:07;12.80;71.50
44513;DHT22;30219;50.588;9.504;2023-04-06T13:30:32;13.10;70.90
44513;DHT22;30219;50.588;9.504;2023-04-06T13:32:58;13.60;71.70
44513;DHT22;30219;50.588;9.504;2023-04-06T13:35:23;14.10;71.80
44513;DHT22;30219;50.588;9.504;2023-04-06T13:37:49;14.10;68.20
44513;DHT22;30219;50.588;9.504;2023-04-06T13:40:17;14.30;70.40
44513;DHT22;30219;50.588;9.504;2023-04-06T13:42:43;14.60;70.10
44513;DHT22;30219;50.588;9.504;2023-04-06T13:45:10;14.90;70.50
44513;DHT22;30219;50.588;9.504;2023-04-06T13:47:36;14.70;68.50
44513;DHT22;30219;50.588;9.504;2023-04-06T13:50:01;14.50;66.90
44513;DHT22;30219;50.588;9.504;2023-04-06T13:52:27;14.10;67.90
44513;DHT22;30219;50.588;9.504;2023-04-06T13:54:52;14.10;69.80
44513;DHT22;30219;50.588;9.504;2023-04-06T13:57:18;14.50;69.40
44513;DHT22;30219;50.588;9.504;2023-04-06T13:59:43;14.80;69.60
44513;DHT22;30219;50.588;9.504;2023-04-06T14:02:09;15.00;67.70
44513;DHT22;30219;50.588;9.504;2023-04-06T14:04:35;14.00;68.80
44513;DHT22;30219;50.588;9.504;2023-04-06T14:07:01;13.30;69.60
44513;DHT22;30219;50.588;9.504;2023-04-06T14:09:27;12.80;70.80
44513;DHT22;30219;50.588;9.504;2023-04-06T14:11:52;12.80;72.40
44513;DHT22;30219;50.588;9.504;2023-04-06T14:14:18;13.20;70.90
44513;DHT22;30219;50.588;9.504;2023-04-06T14:16:43;13.00;68.60
44513;DHT22;30219;50.588;9.504;2023-04-06T14:19:09;12.80;72.40
44513;DHT22;30219;50.588;9.504;2023-04-06T14:21:36;12.90;70.60
44513;DHT22;30219;50.588;9.504;2023-04-06T14:24:02;13.10;71.10
44513;DHT22;30219;50.588;9.504;2023-04-06T14:26:28;13.50;70.90
44513;DHT22;30219;50.588;9.504;2023-04-06T14:28:54;13.90;69.70
44513;DHT22;30219;50.588;9.504;2023-04-06T14:31:19;13.50;69.50
44513;DHT22;30219;50.588;9.504;2023-04-06T14:33:44;13.40;69.20
44513;DHT22;30219;50.588;9.504;2023-04-06T14:36:10;13.10;70.10
44513;DHT22;30219;50.588;9.504;2023-04-06T14:38:36;13.30;70.40
44513;DHT22;30219;50.588;9.504;2023-04-06T14:41:02;13.40;69.50
44513;DHT22;30219;50.588;9.504;2023-04-06T14:43:27;13.10;68.40
44513;DHT22;30219;50.588;9.504;2023-04-06T14:45:53;12.80;70.80
44513;DHT22;30219;50.588;9.504;2023-04-06T14:48:18;13.00;70.20
44513;DHT22;30219;50.588;9.504;2023-04-06T14:50:53;13.20;70.50
44513;DHT22;30219;50.588;9.504;2023-04-06T14:53:19;13.30;69.90
44513;DHT22;30219;50.588;9.504;2023-04-06T14:55:44;13.50;69.70
44513;DHT22;30219;50.588;9.504;2023-04-06T14:58:10;13.30;69.20
44513;DHT22;30219;50.588;9.504;2023-04-06T15:00:36;13.20;70.30
44513;DHT22;30219;50.588;9.504;2023-04-06T15:03:02;13.30;68.00
44513;DHT22;30219;50.588;9.504;2023-04-06T15:05:27;13.30;68.80
44513;DHT22;30219;50.588;9.504;2023-04-06T15:07:53;13.30;70.20
44513;DHT22;30219;50.588;9.504;2023-04-06T15:10:18;13.00;70.10
44513;DHT22;30219;50.588;9.504;2023-04-06T15:12:43;12.90;70.30
44513;DHT22;30219;50.588;9.504;2023-04-06T15:15:09;12.80;68.90
44513;DHT22;30219;50.588;9.504;2023-04-06T15:17:35;12.90;69.70
44513;DHT22;30219;50.588;9.504;2023-04-06T15:20:01;13.00;69.30
44513;DHT22;30219;50.588;9.504;2023-04-06T15:22:26;13.00;70.00
44513;DHT22;30219;50.588;9.504;2023-04-06T15:24:52;12.90;69.60
44513;DHT22;30219;50.588;9.504;2023-04-06T15:27:17;12.70;70.00
44513;DHT22;30219;50.588;9.504;2023-04-06T15:29:43;12.80;68.80